sensor_id;sensor_type;location;lat;lon;timestamp;P1;durP1;ratioP1;P2;durP2;ratioP2
22476;SDS011;65006;51.698;-0.292;2023-03-04T00:01:19;5.93;;;0.93;;
22476;SDS011;65006;51.698;-0.292;2023-03-04T00:03:45;8.93;;;1.23;;
22476;SDS011;65006;51.698;-0.292;2023-03-04T00:06:11;13.18;;;1.23;;
22476;SDS011;65006;51.698;-0.292;2023-03-04T00:08:37;4.32;;;1.55;;
22476;SDS011;65006;51.698;-0.292;2023-03-04T00:11:03;12.43;;;1.23;;
22476;SDS011;65006;51.698;-0.292;2023-03-04T00:13:30;5.93;;;0.98;;
22476;SDS011;65006;51.698;-0.292;2023-03-04T00:15:56;15.77;;;1.73;;
22476;SDS011;65006;51.698;-0.292;2023-03-04T00:18:22;2.50;;;1.08;;
22476;SDS011;65006;51.698;-0.292;2023-03-04T00:20:48;3.53;;;0.80;;
22476;SDS011;65006;51.698;-0.292;2023-03-04T00:23:14;2.85;;;0.80;;
22476;SDS011;65006;51.698;-0.292;2023-03-04T00:25:40;16.13;;;1.45;;
22476;SDS011;65006;51.698;-0.292;2023-03-04T00:28:06;4.75;;;0.90;;
22476;SDS011;65006;51.698;-0.292;2023-03-04T00:30:32;4.05;;;0.80;;
22476;SDS011;65006;51.698;-0.292;2023-03-04T00:32:59;15.23;;;1.40;;
22476;SDS011;65006;51.698;-0.292;2023-03-04T00:35:25;8.05;;;1.10;;
22476;SDS011;65006;51.698;-0.292;2023-03-04T00:37:51;6.10;;;1.00;;
22476;SDS011;65006;51.698;-0.292;2023-03-04T00:40:17;3.05;;;0.82;;
22476;SDS011;65006;51.698;-0.292;2023-03-04T00:42:43;7.93;;;1.05;;
22476;SDS011;65006;51.698;-0.292;2023-03-04T00:45:09;4.15;;;0.80;;
22476;SDS011;65006;51.698;-0.292;2023-03-04T00:47:35;8.48;;;1.20;;
22476;SDS011;65006;51.698;-0.292;2023-03-04T00:50:02;3.13;;;1.00;;
22476;SDS011;65006;51.698;-0.292;2023-03-04T00:52:28;10.18;;;0.90;;
22476;SDS011;65006;51.698;-0.292;2023-03-04T00:54:54;1.30;;;0.50;;
22476;SDS011;65006;51.698;-0.292;2023-03-04T00:57:20;5.47;;;0.60;;
22476;SDS011;65006;51.698;-0.292;2023-03-04T00:59:46;6.32;;;1.10;;
22476;SDS011;65006;51.698;-0.292;2023-03-04T01:02:12;7.80;;;0.90;;
22476;SDS011;65006;51.698;-0.292;2023-03-04T01:04:38;6.63;;;1.30;;
22476;SDS011;65006;51.698;-0.292;2023-03-04T01:07:06;7.68;;;1.02;;
22476;SDS011;65006;51.698;-0.292;2023-03-04T01:09:32;12.02;;;1.98;;
22476;SDS011;65006;51.698;-0.292;2023-03-04T01:11:58;6.57;;;1.38;;
22476;SDS011;65006;51.698;-0.292;2023-03-04T01:14:24;10.40;;;1.15;;
22476;SDS011;65006;51.698;-0.292;2023-03-04T01:16:50;4.80;;;0.70;;
22476;SDS011;65006;51.698;-0.292;2023-03-04T01:19:17;6.15;;;1.08;;
22476;SDS011;65006;51.698;-0.292;2023-03-04T01:21:43;20.77;;;1.02;;
22476;SDS011;65006;51.698;-0.292;2023-03-04T01:24:09;8.77;;;0.68;;
22476;SDS011;65006;51.698;-0.292;2023-03-04T01:26:35;3.95;;;0.93;;
22476;SDS011;65006;51.698;-0.292;2023-03-04T01:29:01;4.50;;;0.82;;
22476;SDS011;65006;51.698;-0.292;2023-03-04T01:31:27;3.45;;;1.10;;
22476;SDS011;65006;51.698;-0.292;2023-03-04T01:33:53;5.22;;;1.10;;
22476;SDS011;65006;51.698;-0.292;2023-03-04T01:36:19;3.58;;;0.77;;
22476;SDS011;65006;51.698;-0.292;2023-03-04T01:38:45;4.32;;;0.95;;
22476;SDS011;65006;51.698;-0.292;2023-03-04T01:41:12;11.20;;;1.00;;
22476;SDS011;65006;51.698;-0.292;2023-03-04T01:43:38;3.38;;;1.15;;
22476;SDS011;65006;51.698;-0.292;2023-03-04T01:46:04;8.65;;;0.80;;
22476;SDS011;65006;51.698;-0.292;2023-03-04T01:48:32;7.95;;;0.93;;
22476;SDS011;65006;51.698;-0.292;2023-03-04T01:51:01;6.72;;;0.82;;
22476;SDS011;65006;51.698;-0.292;2023-03-04T01:53:27;2.42;;;0.57;;
22476;SDS011;65006;51.698;-0.292;2023-03-04T01:55:54;9.30;;;1.38;;
22476;SDS011;65006;51.698;-0.292;2023-03-04T01:58:22;12.00;;;0.98;;
22476;SDS011;65006;51.698;-0.292;2023-03-04T02:00:49;3.08;;;1.13;;
22476;SDS011;65006;51.698;-0.292;2023-03-04T02:03:16;7.65;;;1.05;;
22476;SDS011;65006;51.698;-0.292;2023-03-04T02:05:45;3.50;;;0.70;;
22476;SDS011;65006;51.698;-0.292;2023-03-04T02:08:11;6.47;;;0.98;;
22476;SDS011;65006;51.698;-0.292;2023-03-04T02:10:39;6.63;;;1.15;;
22476;SDS011;65006;51.698;-0.292;2023-03-04T02:13:06;6.13;;;1.25;;
22476;SDS011;65006;51.698;-0.292;2023-03-04T02:15:32;5.80;;;1.00;;
22476;SDS011;65006;51.698;-0.292;2023-03-04T02:17:59;7.72;;;1.10;;
22476;SDS011;65006;51.698;-0.292;2023-03-04T02:20:40;4.40;;;0.85;;
22476;SDS011;65006;51.698;-0.292;2023-03-04T02:23:29;2.58;;;0.52;;
22476;SDS011;65006;51.698;-0.292;2023-03-04T02:26:11;9.55;;;0.90;;
22476;SDS011;65006;51.698;-0.292;2023-03-04T02:28:38;6.85;;;1.48;;
22476;SDS011;65006;51.698;-0.292;2023-03-04T02:31:04;9.07;;;1.10;;
22476;SDS011;65006;51.698;-0.292;2023-03-04T02:33:30;1.25;;;0.80;;
22476;SDS011;65006;51.698;-0.292;2023-03-04T02:38:23;4.57;;;1.48;;
22476;SDS011;65006;51.698;-0.292;2023-03-04T02:40:50;4.53;;;0.70;;
22476;SDS011;65006;51.698;-0.292;2023-03-04T02:43:16;8.18;;;1.20;;
22476;SDS011;65006;51.698;-0.292;2023-03-04T02:45:44;5.43;;;0.90;;
22476;SDS011;65006;51.698;-0.292;2023-03-04T02:48:11;13.73;;;1.13;;
22476;SDS011;65006;51.698;-0.292;2023-03-04T02:50:40;11.57;;;1.45;;
22476;SDS011;65006;51.698;-0.292;2023-03-04T02:53:06;4.25;;;0.98;;
22476;SDS011;65006;51.698;-0.292;2023-03-04T02:55:32;4.65;;;1.00;;
22476;SDS011;65006;51.698;-0.292;2023-03-04T02:57:58;5.28;;;1.10;;
22476;SDS011;65006;51.698;-0.292;2023-03-04T03:00:24;4.57;;;1.33;;
22476;SDS011;65006;51.698;-0.292;2023-03-04T03:02:50;3.67;;;0.90;;
22476;SDS011;65006;51.698;-0.292;2023-03-04T03:05:16;10.90;;;1.40;;
22476;SDS011;65006;51.698;-0.292;2023-03-04T03:07:43;7.55;;;1.30;;
22476;SDS011;65006;51.698;-0.292;2023-03-04T03:10:09;10.98;;;1.33;;
22476;SDS011;65006;51.698;-0.292;2023-03-04T03:12:35;3.58;;;0.82;;
22476;SDS011;65006;51.698;-0.292;2023-03-04T03:15:01;4.60;;;1.00;;
22476;SDS011;65006;51.698;-0.292;2023-03-04T03:17:27;7.00;;;1.00;;
22476;SDS011;65006;51.698;-0.292;2023-03-04T03:19:53;6.30;;;1.20;;
22476;SDS011;65006;51.698;-0.292;2023-03-04T03:22:19;8.60;;;1.45;;
22476;SDS011;65006;51.698;-0.292;2023-03-04T03:24:45;4.40;;;0.85;;
22476;SDS011;65006;51.698;-0.292;2023-03-04T03:27:11;7.10;;;1.00;;
22476;SDS011;65006;51.698;-0.292;2023-03-04T03:29:37;5.22;;;0.80;;
22476;SDS011;65006;51.698;-0.292;2023-03-04T03:32:03;6.45;;;1.00;;
22476;SDS011;65006;51.698;-0.292;2023-03-04T03:34:32;6.47;;;0.95;;
22476;SDS011;65006;51.698;-0.292;2023-03-04T03:36:58;12.77;;;1.33;;
22476;SDS011;65006;51.698;-0.292;2023-03-04T03:39:24;12.23;;;1.20;;
22476;SDS011;65006;51.698;-0.292;2023-03-04T03:41:50;9.02;;;0.88;;
22476;SDS011;65006;51.698;-0.292;2023-03-04T03:44:16;4.97;;;0.80;;
22476;SDS011;65006;51.698;-0.292;2023-03-04T03:46:42;11.40;;;1.30;;
22476;SDS011;65006;51.698;-0.292;2023-03-04T03:49:08;7.88;;;1.00;;
22476;SDS011;65006;51.698;-0.292;2023-03-04T03:51:34;5.75;;;0.95;;
22476;SDS011;65006;51.698;-0.292;2023-03-04T03:54:00;9.68;;;1.27;;
22476;SDS011;65006;51.698;-0.292;2023-03-04T03:56:26;4.10;;;1.00;;
22476;SDS011;65006;51.698;-0.292;2023-03-04T03:58:52;10.05;;;1.48;;
22476;SDS011;65006;51.698;-0.292;2023-03-04T04:01:18;5.57;;;0.90;;
22476;SDS011;65006;51.698;-0.292;2023-03-04T04:03:44;5.25;;;1.02;;
22476;SDS011;65006;51.698;-0.292;2023-03-04T04:06:10;6.80;;;1.40;;
22476;SDS011;65006;51.698;-0.292;2023-03-04T04:08:36;6.03;;;1.38;;
22476;SDS011;65006;51.698;-0.292;2023-03-04T04:11:02;2.85;;;0.80;;
22476;SDS011;65006;51.698;-0.292;2023-03-04T04:13:29;4.82;;;0.90;;
22476;SDS011;65006;51.698;-0.292;2023-03-04T04:15:55;4.85;;;1.38;;
22476;SDS011;65006;51.698;-0.292;2023-03-04T04:18:21;5.53;;;0.70;;
22476;SDS011;65006;51.698;-0.292;2023-03-04T04:20:48;3.92;;;1.17;;
22476;SDS011;65006;51.698;-0.292;2023-03-04T04:23:13;1.98;;;1.70;;
22476;SDS011;65006;51.698;-0.292;2023-03-04T04:25:39;1.25;;;0.98;;
22476;SDS011;65006;51.698;-0.292;2023-03-04T04:28:06;9.32;;;1.38;;
22476;SDS011;65006;51.698;-0.292;2023-03-04T04:30:32;4.97;;;0.90;;
22476;SDS011;65006;51.698;-0.292;2023-03-04T04:32:57;9.05;;;1.67;;
22476;SDS011;65006;51.698;-0.292;2023-03-04T04:35:25;5.68;;;1.27;;
22476;SDS011;65006;51.698;-0.292;2023-03-04T04:37:52;5.13;;;1.00;;
22476;SDS011;65006;51.698;-0.292;2023-03-04T04:40:18;3.75;;;0.90;;
22476;SDS011;65006;51.698;-0.292;2023-03-04T04:42:44;5.78;;;0.90;;
22476;SDS011;65006;51.698;-0.292;2023-03-04T04:45:10;9.48;;;1.42;;
22476;SDS011;65006;51.698;-0.292;2023-03-04T04:47:36;4.95;;;0.82;;
22476;SDS011;65006;51.698;-0.292;2023-03-04T04:50:02;4.50;;;1.17;;
22476;SDS011;65006;51.698;-0.292;2023-03-04T04:52:28;8.55;;;1.25;;
22476;SDS011;65006;51.698;-0.292;2023-03-04T04:54:54;3.38;;;1.05;;
22476;SDS011;65006;51.698;-0.292;2023-03-04T04:57:21;8.20;;;1.70;;
22476;SDS011;65006;51.698;-0.292;2023-03-04T04:59:47;5.00;;;0.88;;
22476;SDS011;65006;51.698;-0.292;2023-03-04T05:02:13;4.45;;;1.10;;
22476;SDS011;65006;51.698;-0.292;2023-03-04T05:04:39;4.43;;;1.15;;
22476;SDS011;65006;51.698;-0.292;2023-03-04T05:07:05;6.38;;;1.40;;
22476;SDS011;65006;51.698;-0.292;2023-03-04T05:09:31;4.25;;;1.15;;
22476;SDS011;65006;51.698;-0.292;2023-03-04T05:11:57;4.78;;;1.50;;
22476;SDS011;65006;51.698;-0.292;2023-03-04T05:14:23;8.80;;;1.30;;
22476;SDS011;65006;51.698;-0.292;2023-03-04T05:16:49;3.38;;;1.05;;
22476;SDS011;65006;51.698;-0.292;2023-03-04T05:19:16;6.72;;;1.02;;
22476;SDS011;65006;51.698;-0.292;2023-03-04T05:21:42;3.28;;;0.70;;
22476;SDS011;65006;51.698;-0.292;2023-03-04T05:24:09;2.00;;;0.70;;
22476;SDS011;65006;51.698;-0.292;2023-03-04T05:26:35;2.42;;;1.13;;
22476;SDS011;65006;51.698;-0.292;2023-03-04T05:29:01;5.40;;;1.10;;
22476;SDS011;65006;51.698;-0.292;2023-03-04T05:31:27;11.15;;;1.05;;
22476;SDS011;65006;51.698;-0.292;2023-03-04T05:33:53;9.90;;;1.23;;
22476;SDS011;65006;51.698;-0.292;2023-03-04T05:36:19;2.95;;;0.90;;
22476;SDS011;65006;51.698;-0.292;2023-03-04T05:38:45;5.43;;;0.70;;
22476;SDS011;65006;51.698;-0.292;2023-03-04T05:41:11;4.25;;;0.73;;
22476;SDS011;65006;51.698;-0.292;2023-03-04T05:43:37;4.30;;;0.60;;
22476;SDS011;65006;51.698;-0.292;2023-03-04T05:46:06;5.70;;;0.57;;
22476;SDS011;65006;51.698;-0.292;2023-03-04T05:48:33;6.90;;;0.90;;
22476;SDS011;65006;51.698;-0.292;2023-03-04T05:50:59;2.88;;;0.63;;
22476;SDS011;65006;51.698;-0.292;2023-03-04T05:55:51;3.22;;;0.80;;
22476;SDS011;65006;51.698;-0.292;2023-03-04T05:58:19;2.78;;;0.65;;
22476;SDS011;65006;51.698;-0.292;2023-03-04T06:00:45;3.58;;;0.63;;
22476;SDS011;65006;51.698;-0.292;2023-03-04T06:03:20;3.97;;;0.82;;
22476;SDS011;65006;51.698;-0.292;2023-03-04T06:05:47;7.95;;;0.70;;
22476;SDS011;65006;51.698;-0.292;2023-03-04T06:08:13;3.05;;;0.98;;
22476;SDS011;65006;51.698;-0.292;2023-03-04T06:10:39;1.88;;;0.88;;
22476;SDS011;65006;51.698;-0.292;2023-03-04T06:13:06;4.10;;;0.80;;
22476;SDS011;65006;51.698;-0.292;2023-03-04T06:15:32;3.65;;;0.70;;
22476;SDS011;65006;51.698;-0.292;2023-03-04T06:17:58;1.73;;;0.88;;
22476;SDS011;65006;51.698;-0.292;2023-03-04T06:20:24;4.93;;;0.80;;
22476;SDS011;65006;51.698;-0.292;2023-03-04T06:22:51;2.55;;;0.60;;
22476;SDS011;65006;51.698;-0.292;2023-03-04T06:25:17;2.38;;;0.98;;
22476;SDS011;65006;51.698;-0.292;2023-03-04T06:27:43;2.70;;;0.75;;
22476;SDS011;65006;51.698;-0.292;2023-03-04T06:30:09;2.92;;;1.23;;
22476;SDS011;65006;51.698;-0.292;2023-03-04T06:32:36;4.45;;;1.05;;
22476;SDS011;65006;51.698;-0.292;2023-03-04T06:35:02;8.07;;;1.23;;
22476;SDS011;65006;51.698;-0.292;2023-03-04T06:37:28;9.32;;;1.10;;
22476;SDS011;65006;51.698;-0.292;2023-03-04T06:39:54;5.18;;;1.40;;
22476;SDS011;65006;51.698;-0.292;2023-03-04T06:42:20;6.15;;;1.48;;
22476;SDS011;65006;51.698;-0.292;2023-03-04T06:44:47;3.03;;;0.90;;
22476;SDS011;65006;51.698;-0.292;2023-03-04T06:47:13;14.52;;;1.52;;
22476;SDS011;65006;51.698;-0.292;2023-03-04T06:49:40;2.53;;;0.88;;
22476;SDS011;65006;51.698;-0.292;2023-03-04T06:52:06;5.07;;;1.08;;
22476;SDS011;65006;51.698;-0.292;2023-03-04T06:54:35;3.92;;;1.17;;
22476;SDS011;65006;51.698;-0.292;2023-03-04T06:57:01;1.60;;;0.70;;
22476;SDS011;65006;51.698;-0.292;2023-03-04T06:59:27;4.40;;;0.90;;
22476;SDS011;65006;51.698;-0.292;2023-03-04T07:01:53;7.65;;;1.15;;
22476;SDS011;65006;51.698;-0.292;2023-03-04T07:04:19;4.47;;;0.85;;
22476;SDS011;65006;51.698;-0.292;2023-03-04T07:06:47;5.63;;;1.40;;
22476;SDS011;65006;51.698;-0.292;2023-03-04T07:09:13;13.73;;;2.17;;
22476;SDS011;65006;51.698;-0.292;2023-03-04T07:11:40;4.53;;;1.33;;
22476;SDS011;65006;51.698;-0.292;2023-03-04T07:14:06;9.63;;;0.93;;
22476;SDS011;65006;51.698;-0.292;2023-03-04T07:16:32;7.32;;;1.35;;
22476;SDS011;65006;51.698;-0.292;2023-03-04T07:18:58;4.55;;;1.10;;
22476;SDS011;65006;51.698;-0.292;2023-03-04T07:21:24;7.00;;;1.20;;
22476;SDS011;65006;51.698;-0.292;2023-03-04T07:23:51;5.13;;;0.93;;
22476;SDS011;65006;51.698;-0.292;2023-03-04T07:26:16;10.38;;;1.05;;
22476;SDS011;65006;51.698;-0.292;2023-03-04T07:28:43;6.53;;;1.23;;
22476;SDS011;65006;51.698;-0.292;2023-03-04T07:31:15;4.72;;;0.95;;
22476;SDS011;65006;51.698;-0.292;2023-03-04T07:33:43;4.25;;;1.08;;
22476;SDS011;65006;51.698;-0.292;2023-03-04T07:36:10;4.25;;;0.98;;
22476;SDS011;65006;51.698;-0.292;2023-03-04T07:38:38;2.72;;;0.80;;
22476;SDS011;65006;51.698;-0.292;2023-03-04T07:41:04;3.60;;;0.80;;
22476;SDS011;65006;51.698;-0.292;2023-03-04T07:43:30;4.00;;;1.65;;
22476;SDS011;65006;51.698;-0.292;2023-03-04T07:45:59;5.32;;;0.52;;
22476;SDS011;65006;51.698;-0.292;2023-03-04T07:48:26;7.65;;;1.02;;
22476;SDS011;65006;51.698;-0.292;2023-03-04T07:53:34;5.53;;;1.33;;
22476;SDS011;65006;51.698;-0.292;2023-03-04T07:56:02;5.53;;;1.20;;
22476;SDS011;65006;51.698;-0.292;2023-03-04T08:00:54;6.40;;;1.52;;
22476;SDS011;65006;51.698;-0.292;2023-03-04T08:03:20;9.40;;;1.50;;
22476;SDS011;65006;51.698;-0.292;2023-03-04T08:05:46;5.28;;;1.15;;
22476;SDS011;65006;51.698;-0.292;2023-03-04T08:08:14;5.95;;;1.20;;
22476;SDS011;65006;51.698;-0.292;2023-03-04T08:10:40;2.45;;;1.65;;
22476;SDS011;65006;51.698;-0.292;2023-03-04T08:15:38;14.20;;;2.55;;
22476;SDS011;65006;51.698;-0.292;2023-03-04T08:18:04;7.55;;;3.17;;
22476;SDS011;65006;51.698;-0.292;2023-03-04T08:20:30;7.82;;;1.77;;
22476;SDS011;65006;51.698;-0.292;2023-03-04T08:22:58;3.88;;;1.20;;
22476;SDS011;65006;51.698;-0.292;2023-03-04T08:25:25;5.07;;;1.65;;
22476;SDS011;65006;51.698;-0.292;2023-03-04T08:27:52;11.68;;;2.25;;
22476;SDS011;65006;51.698;-0.292;2023-03-04T08:30:18;3.80;;;1.90;;
22476;SDS011;65006;51.698;-0.292;2023-03-04T08:32:45;9.13;;;1.58;;
22476;SDS011;65006;51.698;-0.292;2023-03-04T08:35:11;7.78;;;1.45;;
22476;SDS011;65006;51.698;-0.292;2023-03-04T08:37:40;7.10;;;1.52;;
22476;SDS011;65006;51.698;-0.292;2023-03-04T08:40:06;4.63;;;1.25;;
22476;SDS011;65006;51.698;-0.292;2023-03-04T08:42:32;2.35;;;1.23;;
22476;SDS011;65006;51.698;-0.292;2023-03-04T08:44:58;4.50;;;1.67;;
22476;SDS011;65006;51.698;-0.292;2023-03-04T08:47:25;2.78;;;1.50;;
22476;SDS011;65006;51.698;-0.292;2023-03-04T08:49:51;5.78;;;1.40;;
22476;SDS011;65006;51.698;-0.292;2023-03-04T08:52:18;3.70;;;1.45;;
22476;SDS011;65006;51.698;-0.292;2023-03-04T08:54:46;3.80;;;1.65;;
22476;SDS011;65006;51.698;-0.292;2023-03-04T08:57:12;5.95;;;1.77;;
22476;SDS011;65006;51.698;-0.292;2023-03-04T08:59:38;10.52;;;1.80;;
22476;SDS011;65006;51.698;-0.292;2023-03-04T09:02:04;8.25;;;1.80;;
22476;SDS011;65006;51.698;-0.292;2023-03-04T09:04:30;2.75;;;1.83;;
22476;SDS011;65006;51.698;-0.292;2023-03-04T09:09:25;5.75;;;1.83;;
22476;SDS011;65006;51.698;-0.292;2023-03-04T09:11:53;8.93;;;2.25;;
22476;SDS011;65006;51.698;-0.292;2023-03-04T09:14:19;5.93;;;2.22;;
22476;SDS011;65006;51.698;-0.292;2023-03-04T09:16:45;5.57;;;2.40;;
22476;SDS011;65006;51.698;-0.292;2023-03-04T09:19:11;4.32;;;2.20;;
22476;SDS011;65006;51.698;-0.292;2023-03-04T09:21:37;6.20;;;2.33;;
22476;SDS011;65006;51.698;-0.292;2023-03-04T09:24:03;4.32;;;1.80;;
22476;SDS011;65006;51.698;-0.292;2023-03-04T09:26:29;6.60;;;1.80;;
22476;SDS011;65006;51.698;-0.292;2023-03-04T09:28:56;10.13;;;2.30;;
22476;SDS011;65006;51.698;-0.292;2023-03-04T09:31:23;11.10;;;2.28;;
22476;SDS011;65006;51.698;-0.292;2023-03-04T09:33:50;2.38;;;1.63;;
22476;SDS011;65006;51.698;-0.292;2023-03-04T09:36:16;5.68;;;1.80;;
22476;SDS011;65006;51.698;-0.292;2023-03-04T09:38:42;9.90;;;1.65;;
22476;SDS011;65006;51.698;-0.292;2023-03-04T09:41:09;5.35;;;1.80;;
22476;SDS011;65006;51.698;-0.292;2023-03-04T09:43:38;6.07;;;2.15;;
22476;SDS011;65006;51.698;-0.292;2023-03-04T09:46:15;4.40;;;2.28;;
22476;SDS011;65006;51.698;-0.292;2023-03-04T09:48:57;5.25;;;1.80;;
22476;SDS011;65006;51.698;-0.292;2023-03-04T09:53:58;5.28;;;1.92;;
22476;SDS011;65006;51.698;-0.292;2023-03-04T09:56:27;9.77;;;2.80;;
22476;SDS011;65006;51.698;-0.292;2023-03-04T10:01:41;6.05;;;1.88;;
22476;SDS011;65006;51.698;-0.292;2023-03-04T10:04:16;4.70;;;1.92;;
22476;SDS011;65006;51.698;-0.292;2023-03-04T10:06:42;3.13;;;1.70;;
22476;SDS011;65006;51.698;-0.292;2023-03-04T10:09:16;2.85;;;1.52;;
22476;SDS011;65006;51.698;-0.292;2023-03-04T10:11:45;6.35;;;1.73;;
22476;SDS011;65006;51.698;-0.292;2023-03-04T10:16:43;3.05;;;1.77;;
22476;SDS011;65006;51.698;-0.292;2023-03-04T10:21:47;4.32;;;1.75;;
22476;SDS011;65006;51.698;-0.292;2023-03-04T10:24:20;4.00;;;1.85;;
22476;SDS011;65006;51.698;-0.292;2023-03-04T10:26:50;9.13;;;2.05;;
22476;SDS011;65006;51.698;-0.292;2023-03-04T10:29:19;6.05;;;1.85;;
22476;SDS011;65006;51.698;-0.292;2023-03-04T10:31:46;6.97;;;2.17;;
22476;SDS011;65006;51.698;-0.292;2023-03-04T10:34:14;2.67;;;1.50;;
22476;SDS011;65006;51.698;-0.292;2023-03-04T10:41:43;3.60;;;1.50;;
22476;SDS011;65006;51.698;-0.292;2023-03-04T10:46:44;3.38;;;1.58;;
22476;SDS011;65006;51.698;-0.292;2023-03-04T10:49:11;7.03;;;1.38;;
22476;SDS011;65006;51.698;-0.292;2023-03-04T10:51:49;4.28;;;1.27;;
22476;SDS011;65006;51.698;-0.292;2023-03-04T11:01:56;4.45;;;1.50;;
22476;SDS011;65006;51.698;-0.292;2023-03-04T11:04:24;9.40;;;1.92;;
22476;SDS011;65006;51.698;-0.292;2023-03-04T11:06:52;2.38;;;1.50;;
22476;SDS011;65006;51.698;-0.292;2023-03-04T11:11:48;3.45;;;1.70;;
22476;SDS011;65006;51.698;-0.292;2023-03-04T11:14:18;3.38;;;1.38;;
22476;SDS011;65006;51.698;-0.292;2023-03-04T11:16:59;6.82;;;1.45;;
22476;SDS011;65006;51.698;-0.292;2023-03-04T11:19:38;3.45;;;1.33;;
22476;SDS011;65006;51.698;-0.292;2023-03-04T11:22:05;5.82;;;1.92;;
22476;SDS011;65006;51.698;-0.292;2023-03-04T11:24:32;5.53;;;1.60;;
22476;SDS011;65006;51.698;-0.292;2023-03-04T11:27:05;2.95;;;1.60;;
22476;SDS011;65006;51.698;-0.292;2023-03-04T11:32:32;4.22;;;0.88;;
22476;SDS011;65006;51.698;-0.292;2023-03-04T11:38:32;3.67;;;1.10;;
22476;SDS011;65006;51.698;-0.292;2023-03-04T11:40:53;5.20;;;1.33;;
22476;SDS011;65006;51.698;-0.292;2023-03-04T11:48:42;5.22;;;2.38;;
22476;SDS011;65006;51.698;-0.292;2023-03-04T11:54:05;2.80;;;1.20;;
22476;SDS011;65006;51.698;-0.292;2023-03-04T11:56:36;4.55;;;1.85;;
22476;SDS011;65006;51.698;-0.292;2023-03-04T12:04:23;3.83;;;1.45;;
22476;SDS011;65006;51.698;-0.292;2023-03-04T12:11:52;4.70;;;1.33;;
22476;SDS011;65006;51.698;-0.292;2023-03-04T12:19:17;6.30;;;1.30;;
22476;SDS011;65006;51.698;-0.292;2023-03-04T12:24:22;3.90;;;1.40;;
22476;SDS011;65006;51.698;-0.292;2023-03-04T12:29:48;2.72;;;1.20;;
22476;SDS011;65006;51.698;-0.292;2023-03-04T12:32:19;5.32;;;1.83;;
22476;SDS011;65006;51.698;-0.292;2023-03-04T12:40:22;10.13;;;3.17;;
22476;SDS011;65006;51.698;-0.292;2023-03-04T12:45:46;7.47;;;1.40;;
22476;SDS011;65006;51.698;-0.292;2023-03-04T12:48:25;8.90;;;2.03;;
22476;SDS011;65006;51.698;-0.292;2023-03-04T12:53:34;5.40;;;0.90;;
22476;SDS011;65006;51.698;-0.292;2023-03-04T12:56:02;4.50;;;1.00;;
22476;SDS011;65006;51.698;-0.292;2023-03-04T12:58:29;3.85;;;1.10;;
22476;SDS011;65006;51.698;-0.292;2023-03-04T13:01:01;4.82;;;1.10;;
22476;SDS011;65006;51.698;-0.292;2023-03-04T13:03:32;1.33;;;1.10;;
22476;SDS011;65006;51.698;-0.292;2023-03-04T13:11:02;2.53;;;0.73;;
22476;SDS011;65006;51.698;-0.292;2023-03-04T13:13:59;2.72;;;1.08;;
22476;SDS011;65006;51.698;-0.292;2023-03-04T13:16:44;9.27;;;1.08;;
22476;SDS011;65006;51.698;-0.292;2023-03-04T13:21:56;5.57;;;1.00;;
22476;SDS011;65006;51.698;-0.292;2023-03-04T13:29:56;2.85;;;1.33;;
22476;SDS011;65006;51.698;-0.292;2023-03-04T13:32:36;3.33;;;1.15;;
22476;SDS011;65006;51.698;-0.292;2023-03-04T13:35:46;2.72;;;1.08;;
22476;SDS011;65006;51.698;-0.292;2023-03-04T13:37:56;3.00;;;1.45;;
22476;SDS011;65006;51.698;-0.292;2023-03-04T13:40:23;4.55;;;1.40;;
22476;SDS011;65006;51.698;-0.292;2023-03-04T13:43:17;1.58;;;1.05;;
22476;SDS011;65006;51.698;-0.292;2023-03-04T13:45:43;7.22;;;1.73;;
22476;SDS011;65006;51.698;-0.292;2023-03-04T13:48:29;4.45;;;1.27;;
22476;SDS011;65006;51.698;-0.292;2023-03-04T13:50:55;2.83;;;1.17;;
22476;SDS011;65006;51.698;-0.292;2023-03-04T13:53:41;4.63;;;1.17;;
22476;SDS011;65006;51.698;-0.292;2023-03-04T13:58:33;6.40;;;2.70;;
22476;SDS011;65006;51.698;-0.292;2023-03-04T14:01:02;4.95;;;2.00;;
22476;SDS011;65006;51.698;-0.292;2023-03-04T14:03:34;7.88;;;2.20;;
22476;SDS011;65006;51.698;-0.292;2023-03-04T14:06:14;3.40;;;1.60;;
22476;SDS011;65006;51.698;-0.292;2023-03-04T14:09:08;6.43;;;1.92;;
22476;SDS011;65006;51.698;-0.292;2023-03-04T14:11:52;2.92;;;1.70;;
22476;SDS011;65006;51.698;-0.292;2023-03-04T14:17:14;3.75;;;1.20;;
22476;SDS011;65006;51.698;-0.292;2023-03-04T14:19:46;5.78;;;1.48;;
22476;SDS011;65006;51.698;-0.292;2023-03-04T14:22:23;3.47;;;1.67;;
22476;SDS011;65006;51.698;-0.292;2023-03-04T14:24:57;2.65;;;1.60;;
22476;SDS011;65006;51.698;-0.292;2023-03-04T14:27:46;3.20;;;1.77;;
22476;SDS011;65006;51.698;-0.292;2023-03-04T14:30:20;4.95;;;1.73;;
22476;SDS011;65006;51.698;-0.292;2023-03-04T14:32:49;3.75;;;1.55;;
22476;SDS011;65006;51.698;-0.292;2023-03-04T14:35:19;2.28;;;1.38;;
22476;SDS011;65006;51.698;-0.292;2023-03-04T14:37:49;3.13;;;1.70;;
22476;SDS011;65006;51.698;-0.292;2023-03-04T14:40:21;2.95;;;1.42;;
22476;SDS011;65006;51.698;-0.292;2023-03-04T14:42:50;6.43;;;1.92;;
22476;SDS011;65006;51.698;-0.292;2023-03-04T14:45:22;3.72;;;1.55;;
22476;SDS011;65006;51.698;-0.292;2023-03-04T14:50:20;2.72;;;1.52;;
22476;SDS011;65006;51.698;-0.292;2023-03-04T14:55:34;4.25;;;1.98;;
22476;SDS011;65006;51.698;-0.292;2023-03-04T15:00:48;3.92;;;1.80;;
22476;SDS011;65006;51.698;-0.292;2023-03-04T15:03:28;7.00;;;1.85;;
22476;SDS011;65006;51.698;-0.292;2023-03-04T15:05:55;5.07;;;2.03;;
22476;SDS011;65006;51.698;-0.292;2023-03-04T15:08:34;8.65;;;1.73;;
22476;SDS011;65006;51.698;-0.292;2023-03-04T15:11:04;5.47;;;1.73;;
22476;SDS011;65006;51.698;-0.292;2023-03-04T15:13:50;4.35;;;1.90;;
22476;SDS011;65006;51.698;-0.292;2023-03-04T15:19:34;3.17;;;1.50;;
22476;SDS011;65006;51.698;-0.292;2023-03-04T15:22:13;7.40;;;2.03;;
22476;SDS011;65006;51.698;-0.292;2023-03-04T15:24:49;6.82;;;1.33;;
22476;SDS011;65006;51.698;-0.292;2023-03-04T15:27:17;4.80;;;1.40;;
22476;SDS011;65006;51.698;-0.292;2023-03-04T15:32:49;5.38;;;2.00;;
22476;SDS011;65006;51.698;-0.292;2023-03-04T15:35:23;4.20;;;1.90;;
22476;SDS011;65006;51.698;-0.292;2023-03-04T15:37:51;3.88;;;2.25;;
22476;SDS011;65006;51.698;-0.292;2023-03-04T15:40:32;6.45;;;1.73;;
22476;SDS011;65006;51.698;-0.292;2023-03-04T15:42:59;8.25;;;1.80;;
22476;SDS011;65006;51.698;-0.292;2023-03-04T15:45:34;4.28;;;1.80;;
22476;SDS011;65006;51.698;-0.292;2023-03-04T15:48:09;3.45;;;1.40;;
22476;SDS011;65006;51.698;-0.292;2023-03-04T15:50:43;4.72;;;1.73;;
22476;SDS011;65006;51.698;-0.292;2023-03-04T15:53:16;3.53;;;1.50;;
22476;SDS011;65006;51.698;-0.292;2023-03-04T15:55:46;2.50;;;1.58;;
22476;SDS011;65006;51.698;-0.292;2023-03-04T15:58:16;5.32;;;1.70;;
22476;SDS011;65006;51.698;-0.292;2023-03-04T16:00:54;2.78;;;1.75;;
22476;SDS011;65006;51.698;-0.292;2023-03-04T16:03:21;8.55;;;1.63;;
22476;SDS011;65006;51.698;-0.292;2023-03-04T16:05:50;4.22;;;1.73;;
22476;SDS011;65006;51.698;-0.292;2023-03-04T16:08:21;5.22;;;1.80;;
22476;SDS011;65006;51.698;-0.292;2023-03-04T16:10:49;4.55;;;1.30;;
22476;SDS011;65006;51.698;-0.292;2023-03-04T16:13:21;4.25;;;1.45;;
22476;SDS011;65006;51.698;-0.292;2023-03-04T16:21:03;5.50;;;1.65;;
22476;SDS011;65006;51.698;-0.292;2023-03-04T16:23:31;3.47;;;1.70;;
22476;SDS011;65006;51.698;-0.292;2023-03-04T16:26:22;4.30;;;1.65;;
22476;SDS011;65006;51.698;-0.292;2023-03-04T16:29:14;2.95;;;2.08;;
22476;SDS011;65006;51.698;-0.292;2023-03-04T16:31:44;3.50;;;1.63;;
22476;SDS011;65006;51.698;-0.292;2023-03-04T16:34:15;4.65;;;1.92;;
22476;SDS011;65006;51.698;-0.292;2023-03-04T16:36:51;5.00;;;2.30;;
22476;SDS011;65006;51.698;-0.292;2023-03-04T16:39:23;5.57;;;2.88;;
22476;SDS011;65006;51.698;-0.292;2023-03-04T16:42:16;8.18;;;3.45;;
22476;SDS011;65006;51.698;-0.292;2023-03-04T16:44:49;3.65;;;2.30;;
22476;SDS011;65006;51.698;-0.292;2023-03-04T16:47:17;10.95;;;3.55;;
22476;SDS011;65006;51.698;-0.292;2023-03-04T16:49:55;8.43;;;3.20;;